createdAt,value
2022-10-29T00:02:43.215Z,99280.69
2022-10-29T00:05:45.850Z,99286.66
2022-10-29T00:08:48.429Z,99289.56
2022-10-29T00:11:51.133Z,99278.25
2022-10-29T00:14:55.140Z,99285.34
2022-10-29T00:17:57.997Z,99275.81
2022-10-29T00:21:01.899Z,99272.47
2022-10-29T00:24:05.050Z,99274.09
2022-10-29T00:27:07.841Z,99267.03
2022-10-29T00:30:13.915Z,99269.31
2022-10-29T00:36:27.824Z,99273.97
2022-10-29T00:39:30.621Z,99284.13
2022-10-29T00:42:33.216Z,99288.84
2022-10-29T00:45:37.229Z,99283.34
2022-10-29T00:48:44.536Z,99278.34
2022-10-29T00:51:47.761Z,99277.22
2022-10-29T00:54:51.082Z,99278.66
2022-10-29T00:57:56.214Z,99278.16
2022-10-29T01:01:00.437Z,99286.88
2022-10-29T01:04:03.917Z,99278.81
2022-10-29T01:07:06.401Z,99283.81
2022-10-29T01:10:10.271Z,99284.44
2022-10-29T01:13:27.752Z,99276.38
2022-10-29T01:16:38.525Z,99279.31
2022-10-29T01:20:16.393Z,99278.81
2022-10-29T01:23:36.155Z,99269.28
2022-10-29T01:26:54.680Z,99269.41
2022-10-29T01:30:05.212Z,99267.94
2022-10-29T01:33:12.268Z,99269.38
2022-10-29T01:36:18.125Z,99263.69
2022-10-29T01:39:24.035Z,99256.94
2022-10-29T01:42:31.281Z,99247.22
2022-10-29T01:45:36.560Z,99250.28
2022-10-29T01:48:43.875Z,99261.16
2022-10-29T01:51:47.567Z,99255.31
2022-10-29T01:54:50.346Z,99252.28
2022-10-29T01:57:53.184Z,99243.91
2022-10-29T02:01:04.803Z,99239.72
2022-10-29T02:04:20.849Z,99235.91
2022-10-29T02:07:34.839Z,99237.19
2022-10-29T02:10:41.428Z,99234.09
2022-10-29T02:13:49.013Z,99233.28
2022-10-29T02:16:51.771Z,99229.84
2022-10-29T02:19:55.759Z,99225.13
2022-10-29T02:22:58.389Z,99230.75
2022-10-29T02:26:01.068Z,99218.44
2022-10-29T02:29:03.784Z,99209.25
2022-10-29T02:32:07.161Z,99221.69
2022-10-29T02:35:11.346Z,99221.06
2022-10-29T02:38:14.040Z,99216.75
2022-10-29T02:41:16.567Z,99209.78
2022-10-29T02:44:19.252Z,99207.66
2022-10-29T02:47:22.099Z,99206.00
2022-10-29T02:50:26.090Z,99203.25
2022-10-29T02:53:28.709Z,99210.69
2022-10-29T02:56:31.352Z,99208.09
2022-10-29T02:59:34.177Z,99206.47
2022-10-29T03:02:36.799Z,99204.38
2022-10-29T03:05:43.002Z,99204.03
2022-10-29T03:08:48.264Z,99193.69
2022-10-29T03:11:50.901Z,99200.13
2022-10-29T03:14:53.541Z,99192.50
2022-10-29T03:17:56.467Z,99207.38
2022-10-29T03:21:00.604Z,99206.88
2022-10-29T03:24:03.192Z,99206.75
2022-10-29T03:27:05.848Z,99213.91
2022-10-29T03:30:09.900Z,99216.03
2022-10-29T03:33:12.647Z,99220.84
2022-10-29T03:36:16.648Z,99208.56
2022-10-29T03:39:19.319Z,99210.34
2022-10-29T03:42:21.859Z,99211.03
2022-10-29T03:45:24.566Z,99203.94
2022-10-29T03:48:27.241Z,99201.38
2022-10-29T03:51:31.149Z,99201.84
2022-10-29T03:54:33.765Z,99202.31
2022-10-29T03:57:36.412Z,99207.31
2022-10-29T04:00:39.046Z,99210.38
2022-10-29T04:03:42.421Z,99197.47
2022-10-29T04:06:46.517Z,99190.66
2022-10-29T04:09:49.149Z,99199.34
2022-10-29T04:12:51.778Z,99205.19
2022-10-29T04:15:55.952Z,99204.56
2022-10-29T04:18:59.090Z,99207.31
2022-10-29T04:28:49.819Z,99199.47
2022-10-29T04:31:52.278Z,99197.38
2022-10-29T04:34:55.037Z,99204.97
2022-10-29T04:37:59.126Z,99200.28
2022-10-29T04:41:02.550Z,99198.91
2022-10-29T04:44:05.256Z,99199.25
2022-10-29T04:47:08.030Z,99196.84
2022-10-29T04:50:10.945Z,99205.06
2022-10-29T04:53:14.968Z,99200.91
2022-10-29T04:56:17.602Z,99186.03
2022-10-29T04:59:20.217Z,99203.66
2022-10-29T05:02:22.828Z,99201.88
2022-10-29T05:05:25.945Z,99198.00
2022-10-29T05:08:30.007Z,99208.34
2022-10-29T05:11:32.628Z,99194.28
2022-10-29T05:14:35.342Z,99199.59
2022-10-29T05:17:39.531Z,99204.16
2022-10-29T05:20:42.158Z,99201.06
2022-10-29T05:23:46.112Z,99199.28
2022-10-29T05:26:48.718Z,99197.84
2022-10-29T05:29:51.474Z,99203.78
2022-10-29T05:32:54.239Z,99196.69
2022-10-29T05:35:57.212Z,99192.97
2022-10-29T05:39:01.215Z,99203.44
2022-10-29T05:42:03.858Z,99198.44
2022-10-29T05:45:07.249Z,99201.47
2022-10-29T05:51:15.566Z,99198.22
2022-10-29T05:54:19.899Z,99192.22
2022-10-29T05:57:22.580Z,99198.34
2022-10-29T06:00:25.951Z,99195.16
2022-10-29T06:03:28.594Z,99196.78
2022-10-29T06:06:31.560Z,99195.47
2022-10-29T06:09:35.552Z,99207.91
2022-10-29T06:12:38.264Z,99209.03
2022-10-29T06:15:41.420Z,99206.00
2022-10-29T06:18:44.246Z,99205.34
2022-10-29T06:21:47.079Z,99208.75
2022-10-29T06:24:51.173Z,99209.38
2022-10-29T06:28:01.814Z,99214.03
2022-10-29T06:31:04.484Z,99207.59
2022-10-29T06:34:07.466Z,99215.84
2022-10-29T06:37:10.183Z,99204.72
2022-10-29T06:40:14.251Z,99215.69
2022-10-29T06:43:16.940Z,99210.69
2022-10-29T06:46:19.693Z,99210.34
2022-10-29T06:49:22.515Z,99210.19
2022-10-29T06:52:25.264Z,99212.63
2022-10-29T06:55:29.571Z,99213.28
2022-10-29T06:58:32.124Z,99215.88
2022-10-29T07:01:34.880Z,99212.84
2022-10-29T07:04:37.605Z,99216.72
2022-10-29T07:07:40.538Z,99221.09
2022-10-29T07:10:44.569Z,99223.00
2022-10-29T07:13:47.205Z,99220.25
2022-10-29T07:16:49.899Z,99215.06
2022-10-29T07:19:52.591Z,99224.13
2022-10-29T07:22:55.225Z,99225.22
2022-10-29T07:25:59.227Z,99225.38
2022-10-29T07:29:01.914Z,99225.34
2022-10-29T07:32:04.793Z,99226.25
2022-10-29T07:35:08.035Z,99230.09
2022-10-29T07:38:12.921Z,99235.41
2022-10-29T07:41:16.880Z,99235.22
2022-10-29T07:44:19.618Z,99237.72
2022-10-29T07:47:22.341Z,99240.38
2022-10-29T07:50:25.125Z,99243.84
2022-10-29T07:53:27.709Z,99251.00
2022-10-29T07:56:31.704Z,99245.63
2022-10-29T07:59:34.345Z,99250.47
2022-10-29T08:02:37.074Z,99247.06
2022-10-29T08:05:42.682Z,99246.13
2022-10-29T08:08:45.871Z,99251.03
2022-10-29T08:11:49.931Z,99244.63
2022-10-29T08:14:52.547Z,99247.16
2022-10-29T08:17:55.397Z,99244.25
2022-10-29T08:20:58.263Z,99242.19
2022-10-29T08:24:00.972Z,99247.03
2022-10-29T08:27:05.121Z,99248.97
2022-10-29T08:30:09.239Z,99241.59
2022-10-29T08:33:12.200Z,99255.94
2022-10-29T08:36:16.004Z,99241.50
2022-10-29T08:39:18.627Z,99241.31
2022-10-29T08:42:32.020Z,99241.78
2022-10-29T08:45:37.780Z,99239.13
2022-10-29T08:48:46.419Z,99242.25
2022-10-29T08:51:54.037Z,99235.41
2022-10-29T08:55:05.001Z,99241.06
2022-10-29T08:58:15.177Z,99231.69
2022-10-29T09:01:19.851Z,99231.09
2022-10-29T09:04:27.133Z,99230.94
2022-10-29T09:07:44.041Z,99234.88
2022-10-29T09:10:51.307Z,99238.97
2022-10-29T09:14:08.563Z,99238.69
2022-10-29T09:17:21.488Z,99234.09
2022-10-29T09:20:29.873Z,99232.22
2022-10-29T09:23:48.966Z,99231.75
2022-10-29T09:26:58.678Z,99231.44
2022-10-29T09:30:09.161Z,99226.34
2022-10-29T09:33:15.314Z,99224.59
2022-10-29T09:36:19.640Z,99212.63
2022-10-29T09:39:33.091Z,99206.47
2022-10-29T09:42:39.007Z,99209.44
2022-10-29T09:45:48.559Z,99211.34
2022-10-29T09:48:57.911Z,99208.97
2022-10-29T09:52:03.534Z,99216.16
2022-10-29T09:55:08.181Z,99214.13
2022-10-29T09:58:19.623Z,99213.25
2022-10-29T10:01:23.802Z,99206.13
2022-10-29T10:04:29.271Z,99207.56
2022-10-29T10:07:31.954Z,99210.69
2022-10-29T10:10:35.748Z,99200.56
2022-10-29T10:13:52.728Z,99196.47
2022-10-29T10:16:59.897Z,99203.84
2022-10-29T10:20:02.671Z,99192.81
2022-10-29T10:23:25.072Z,99189.78
2022-10-29T10:26:34.273Z,99192.22
2022-10-29T10:29:36.822Z,99190.09
2022-10-29T10:32:40.978Z,99187.72
2022-10-29T10:35:43.837Z,99187.78
2022-10-29T10:38:48.159Z,99182.28
2022-10-29T10:41:51.975Z,99188.28
2022-10-29T10:44:58.131Z,99180.34
2022-10-29T10:48:02.826Z,99169.63
2022-10-29T10:51:17.939Z,99165.72
2022-10-29T10:54:29.411Z,99160.16
2022-10-29T10:57:34.287Z,99155.41
2022-10-29T11:00:39.089Z,99162.63
2022-10-29T11:03:46.382Z,99157.47
2022-10-29T11:06:51.072Z,99158.69
2022-10-29T11:09:55.679Z,99155.94
2022-10-29T11:13:02.738Z,99153.25
2022-10-29T11:16:12.819Z,99148.53
2022-10-29T11:19:22.516Z,99142.59
2022-10-29T11:22:29.496Z,99128.28
2022-10-29T11:25:36.785Z,99127.84
2022-10-29T11:28:40.624Z,99131.84
2022-10-29T11:31:48.531Z,99127.88
2022-10-29T11:34:57.954Z,99127.91
2022-10-29T11:38:04.331Z,99124.28
2022-10-29T11:41:14.331Z,99121.13
2022-10-29T11:44:20.674Z,99123.88
2022-10-29T11:47:56.306Z,99119.03
2022-10-29T11:51:04.456Z,99115.06
2022-10-29T11:54:15.517Z,99098.59
2022-10-29T11:57:24.548Z,99097.47
2022-10-29T12:00:32.443Z,99085.84
2022-10-29T12:03:48.183Z,99086.88
2022-10-29T12:07:00.618Z,99078.63
2022-10-29T12:10:17.414Z,99074.78
2022-10-29T12:13:35.661Z,99072.38
2022-10-29T12:16:47.582Z,99074.03
2022-10-29T12:19:57.055Z,99066.06
2022-10-29T12:23:08.014Z,99059.22
2022-10-29T12:26:17.231Z,99049.91
2022-10-29T12:29:23.908Z,99054.16
2022-10-29T12:32:31.219Z,99046.38
2022-10-29T12:35:39.047Z,99051.09
2022-10-29T12:38:44.973Z,99045.66
2022-10-29T12:41:49.889Z,99045.97
2022-10-29T12:45:03.043Z,99037.94
2022-10-29T12:48:11.229Z,99039.41
2022-10-29T12:51:18.380Z,99030.09
2022-10-29T12:54:31.868Z,99032.22
2022-10-29T12:57:36.129Z,99027.84
2022-10-29T13:00:47.731Z,99012.38
2022-10-29T13:04:11.780Z,99010.78
2022-10-29T13:07:24.558Z,99006.88
2022-10-29T13:10:53.855Z,99001.19
2022-10-29T13:13:59.722Z,99005.19
2022-10-29T13:17:04.536Z,99000.13
2022-10-29T13:20:21.372Z,98990.34
2022-10-29T13:23:35.921Z,98990.00
2022-10-29T13:26:55.127Z,98990.56
2022-10-29T13:30:20.626Z,98986.59
2022-10-29T13:33:53.052Z,98977.00
2022-10-29T13:37:34.679Z,98977.38
2022-10-29T13:41:05.074Z,98970.66
2022-10-29T13:44:13.404Z,98967.00
2022-10-29T13:47:21.204Z,98954.69
2022-10-29T13:50:24.029Z,98953.19
2022-10-29T13:53:35.901Z,98960.47
2022-10-29T13:56:43.711Z,98956.78
2022-10-29T13:59:52.105Z,98951.69
2022-10-29T14:02:57.700Z,98956.84
2022-10-29T14:06:02.811Z,98955.53
2022-10-29T14:09:14.824Z,98950.47
2022-10-29T14:12:21.203Z,98954.72
2022-10-29T14:15:25.290Z,98949.28
2022-10-29T14:18:28.947Z,98948.75
2022-10-29T14:21:39.417Z,98950.13
2022-10-29T14:24:42.073Z,98949.66
2022-10-29T14:27:44.599Z,98946.81
2022-10-29T14:30:50.350Z,98949.59
2022-10-29T14:33:57.243Z,98941.25
2022-10-29T14:37:01.931Z,98942.44
2022-10-29T14:40:07.707Z,98941.25
2022-10-29T14:43:21.698Z,98942.97
2022-10-29T14:46:27.949Z,98945.16
2022-10-29T14:49:31.649Z,98940.66
2022-10-29T14:52:35.614Z,98942.06
2022-10-29T14:55:40.088Z,98942.78
2022-10-29T14:58:42.764Z,98942.50
2022-10-29T15:01:48.429Z,98940.34
2022-10-29T15:04:56.373Z,98936.47
2022-10-29T15:08:07.395Z,98940.59
2022-10-29T15:11:35.052Z,98935.88
2022-10-29T15:14:39.513Z,98933.13
2022-10-29T15:17:48.776Z,98931.88
2022-10-29T15:20:51.600Z,98925.84
2022-10-29T15:23:57.434Z,98932.50
2022-10-29T15:27:02.196Z,98928.06
2022-10-29T15:30:05.923Z,98933.16
2022-10-29T15:33:17.327Z,98930.66
2022-10-29T15:36:19.933Z,98924.13
2022-10-29T15:39:26.939Z,98921.63
2022-10-29T15:42:32.135Z,98922.69
2022-10-29T15:45:34.992Z,98935.28
2022-10-29T15:48:39.081Z,98921.59
2022-10-29T15:51:41.690Z,98921.34
2022-10-29T15:54:44.573Z,98918.00
2022-10-29T15:57:47.480Z,98923.25
2022-10-29T16:00:50.410Z,98915.81
2022-10-29T16:03:54.765Z,98919.28
2022-10-29T16:06:57.593Z,98920.81
2022-10-29T16:10:02.061Z,98919.13
2022-10-29T16:13:04.658Z,98925.19
2022-10-29T16:16:10.536Z,98909.50
2022-10-29T16:19:14.582Z,98919.94
2022-10-29T16:22:20.471Z,98911.75
2022-10-29T16:25:25.783Z,98912.00
2022-10-29T16:28:28.577Z,98916.19
2022-10-29T16:31:31.320Z,98912.94
2022-10-29T16:34:35.917Z,98915.22
2022-10-29T16:37:38.864Z,98915.13
2022-10-29T16:40:42.787Z,98923.25
2022-10-29T16:43:45.873Z,98921.28
2022-10-29T16:46:48.643Z,98924.34
2022-10-29T16:49:52.812Z,98928.34
2022-10-29T16:52:59.186Z,98912.50
2022-10-29T16:56:02.481Z,98922.69
2022-10-29T16:59:05.262Z,98921.31
2022-10-29T17:02:09.464Z,98912.97
2022-10-29T17:05:14.377Z,98917.75
2022-10-29T17:08:16.985Z,98919.41
2022-10-29T17:11:19.794Z,98914.81
2022-10-29T17:14:22.397Z,98915.94
2022-10-29T17:17:25.324Z,98922.84
2022-10-29T17:20:29.394Z,98925.34
2022-10-29T17:23:33.004Z,98926.78
2022-10-29T17:26:35.740Z,98927.91
2022-10-29T17:29:38.697Z,98930.91
2022-10-29T17:32:41.398Z,98929.03
2022-10-29T17:35:45.661Z,98934.47
2022-10-29T17:38:48.366Z,98932.38
2022-10-29T17:41:51.465Z,98935.69
2022-10-29T17:44:54.464Z,98938.13
2022-10-29T17:47:57.810Z,98942.69
2022-10-29T17:51:03.367Z,98950.44
2022-10-29T17:54:06.251Z,98943.28
2022-10-29T17:57:08.923Z,98937.06
2022-10-29T18:00:12.706Z,98940.81
2022-10-29T18:03:15.589Z,98949.84
2022-10-29T18:06:19.666Z,98942.41
2022-10-29T18:09:22.431Z,98942.72
2022-10-29T18:12:25.170Z,98942.09
2022-10-29T18:15:28.044Z,98944.16
2022-10-29T18:18:38.280Z,98933.00
2022-10-29T18:21:52.377Z,98944.69
2022-10-29T18:24:55.262Z,98942.19
2022-10-29T18:27:57.948Z,98942.06
2022-10-29T18:31:01.561Z,98944.41
2022-10-29T18:34:06.492Z,98945.94
2022-10-29T18:37:10.880Z,98947.88
2022-10-29T18:40:13.924Z,98949.84
2022-10-29T18:43:16.562Z,98945.03
2022-10-29T18:46:20.006Z,98946.03
2022-10-29T18:49:22.893Z,98955.25
2022-10-29T18:52:27.062Z,98951.63
2022-10-29T18:55:29.685Z,98952.75
2022-10-29T18:58:33.347Z,98957.41
2022-10-29T19:01:37.822Z,98950.63
2022-10-29T19:04:40.931Z,98951.88
2022-10-29T19:07:44.935Z,98952.91
2022-10-29T19:10:47.612Z,98950.72
2022-10-29T19:13:53.975Z,98953.72
2022-10-29T19:16:56.664Z,98953.00
2022-10-29T19:19:59.514Z,98954.00
2022-10-29T19:23:04.041Z,98952.75
2022-10-29T19:26:08.481Z,98951.41
2022-10-29T19:29:13.204Z,98952.72
2022-10-29T19:32:15.814Z,98947.72
2022-10-29T19:35:18.990Z,98944.97
2022-10-29T19:38:23.012Z,98949.25
2022-10-29T19:41:26.332Z,98941.78
2022-10-29T19:44:28.963Z,98944.06
2022-10-29T19:47:31.757Z,98953.72
2022-10-29T19:50:34.638Z,98951.78
2022-10-29T19:53:40.193Z,98946.00
2022-10-29T19:56:42.773Z,98954.94
2022-10-29T19:59:45.483Z,98953.91
2022-10-29T20:02:48.166Z,98957.81
2022-10-29T20:05:50.852Z,98952.56
2022-10-29T20:08:55.058Z,98947.94
2022-10-29T20:11:57.721Z,98961.94
2022-10-29T20:15:00.358Z,98949.75
2022-10-29T20:18:02.983Z,98949.31
2022-10-29T20:24:15.091Z,98952.78
2022-10-29T20:27:19.238Z,98956.25
2022-10-29T20:30:22.085Z,98952.13
2022-10-29T20:33:24.782Z,98954.69
2022-10-29T20:36:29.621Z,98951.38
2022-10-29T20:39:33.749Z,98945.53
2022-10-29T20:42:36.479Z,98954.25
2022-10-29T20:45:39.057Z,98941.28
2022-10-29T20:48:41.737Z,98953.09
2022-10-29T20:51:44.369Z,98950.59
2022-10-29T20:54:48.398Z,98961.38
2022-10-29T20:57:51.049Z,98951.31
2022-10-29T21:00:53.674Z,98961.59
2022-10-29T21:03:56.661Z,98959.91
2022-10-29T21:06:59.358Z,98960.00
2022-10-29T21:10:03.463Z,98961.16
2022-10-29T21:13:06.580Z,98960.13
2022-10-29T21:16:11.329Z,98970.22
2022-10-29T21:19:14.019Z,98968.03
2022-10-29T21:22:18.829Z,98972.16
2022-10-29T21:25:22.809Z,98973.66
2022-10-29T21:28:25.472Z,98971.72
2022-10-29T21:31:28.206Z,98978.00
2022-10-29T21:34:30.876Z,98976.63
2022-10-29T21:37:33.653Z,98970.78
2022-10-29T21:40:37.558Z,98979.72
2022-10-29T21:43:40.569Z,98981.09
2022-10-29T21:46:43.320Z,98979.16
2022-10-29T21:49:51.839Z,98978.69
2022-10-29T21:52:57.393Z,98986.31
2022-10-29T21:56:04.355Z,98982.69
2022-10-29T21:59:07.187Z,98980.59
2022-10-29T22:02:09.979Z,98974.28
2022-10-29T22:05:12.875Z,98976.13
2022-10-29T22:08:15.601Z,98978.06
2022-10-29T22:11:19.778Z,98989.84
2022-10-29T22:14:22.453Z,98980.78
2022-10-29T22:17:25.325Z,98978.03
2022-10-29T22:20:28.102Z,98981.72
2022-10-29T22:23:30.865Z,98977.59
2022-10-29T22:26:34.883Z,98971.41
2022-10-29T22:29:37.475Z,98970.50
2022-10-29T22:32:40.179Z,98973.47
2022-10-29T22:35:42.768Z,98970.47
2022-10-29T22:38:45.827Z,98963.78
2022-10-29T22:41:49.750Z,98968.94
2022-10-29T22:44:52.435Z,98970.78
2022-10-29T22:47:55.122Z,98969.88
2022-10-29T22:51:02.159Z,98968.16
2022-10-29T22:54:05.213Z,98970.72
2022-10-29T22:57:09.212Z,98963.72
2022-10-29T23:00:13.384Z,98967.13
2022-10-29T23:03:16.064Z,98967.94
2022-10-29T23:06:20.505Z,98962.56
2022-10-29T23:09:23.242Z,98964.53
2022-10-29T23:12:27.313Z,98965.66
2022-10-29T23:15:30.136Z,98965.78
2022-10-29T23:18:32.777Z,98968.78
2022-10-29T23:21:35.437Z,98971.53
2022-10-29T23:24:38.056Z,98958.47
2022-10-29T23:27:42.074Z,98958.03
2022-10-29T23:30:44.719Z,98956.84
2022-10-29T23:33:49.133Z,98964.34
2022-10-29T23:39:55.569Z,98965.28
2022-10-29T23:42:59.568Z,98965.28
2022-10-29T23:46:02.642Z,98957.44
2022-10-29T23:49:05.350Z,98952.63
2022-10-29T23:52:08.047Z,98950.69
2022-10-29T23:55:10.757Z,98953.44
2022-10-29T23:58:15.267Z,98951.63
